createdAt,value
2018-05-09T00:04:20.841Z,8.40
2018-05-09T00:09:15.178Z,4.73
2018-05-09T00:14:09.547Z,5.77
2018-05-09T00:19:03.688Z,3.70
2018-05-09T00:23:58.069Z,4.47
2018-05-09T00:28:52.438Z,6.17
2018-05-09T00:33:46.780Z,3.27
2018-05-09T00:38:41.152Z,3.23
2018-05-09T00:43:35.523Z,5.03
2018-05-09T00:48:29.904Z,3.40
2018-05-09T00:53:25.024Z,4.03
2018-05-09T00:58:20.433Z,3.23
2018-05-09T01:03:15.014Z,5.33
2018-05-09T01:08:09.364Z,6.07
2018-05-09T01:13:03.738Z,6.23
2018-05-09T01:17:58.123Z,5.73
2018-05-09T01:22:52.486Z,5.13
2018-05-09T01:27:47.624Z,6.47
2018-05-09T01:32:42.163Z,8.77
2018-05-09T01:37:36.669Z,4.83
2018-05-09T01:42:30.999Z,7.30
2018-05-09T01:47:25.366Z,9.50
2018-05-09T01:52:19.918Z,5.50
2018-05-09T01:57:15.413Z,5.93
2018-05-09T02:02:09.770Z,5.43
2018-05-09T02:07:04.122Z,9.73
2018-05-09T02:11:58.547Z,7.17
2018-05-09T02:16:53.462Z,4.57
2018-05-09T02:21:48.022Z,4.53
2018-05-09T02:26:42.406Z,7.83
2018-05-09T02:31:36.934Z,5.43
2018-05-09T02:36:31.325Z,4.40
2018-05-09T02:41:25.697Z,4.33
2018-05-09T02:46:20.883Z,4.37
2018-05-09T02:51:15.256Z,7.13
2018-05-09T02:56:09.667Z,5.47
2018-05-09T03:01:04.020Z,4.97
2018-05-09T03:05:59.153Z,4.03
2018-05-09T03:10:54.278Z,5.70
2018-05-09T03:15:49.430Z,4.87
2018-05-09T03:20:43.773Z,7.47
2018-05-09T03:25:38.204Z,4.93
2018-05-09T03:30:33.362Z,10.43
2018-05-09T03:35:27.753Z,6.77
2018-05-09T03:40:22.090Z,8.03
2018-05-09T03:45:16.622Z,4.97
2018-05-09T03:50:11.772Z,6.30
2018-05-09T03:55:05.862Z,4.40
2018-05-09T04:00:00.326Z,7.87
2018-05-09T04:05:11.878Z,4.10
2018-05-09T04:10:06.385Z,5.33
2018-05-09T04:15:00.784Z,6.80
2018-05-09T04:19:55.132Z,6.20
2018-05-09T04:24:49.496Z,8.60
2018-05-09T04:29:43.900Z,6.17
2018-05-09T04:34:38.255Z,7.97
2018-05-09T04:39:32.614Z,9.17
2018-05-09T04:44:27.265Z,7.77
2018-05-09T04:49:21.637Z,9.57
2018-05-09T04:54:16.145Z,5.73
2018-05-09T04:59:10.482Z,11.30
2018-05-09T05:04:04.835Z,7.30
2018-05-09T05:08:59.190Z,7.10
2018-05-09T05:13:54.323Z,8.10
2018-05-09T05:18:49.472Z,5.73
2018-05-09T05:23:43.824Z,9.13
2018-05-09T05:28:38.206Z,5.97
2018-05-09T05:33:32.572Z,6.73
2018-05-09T05:38:27.284Z,7.47
2018-05-09T05:43:21.704Z,15.80
2018-05-09T05:48:16.086Z,5.93
2018-05-09T05:53:10.576Z,7.57
2018-05-09T05:58:05.696Z,6.80
2018-05-09T06:03:00.890Z,9.60
2018-05-09T06:07:55.624Z,9.50
2018-05-09T06:12:50.587Z,8.67
2018-05-09T06:17:45.766Z,7.87
2018-05-09T06:22:40.594Z,6.97
2018-05-09T06:27:35.429Z,6.30
2018-05-09T06:32:30.818Z,7.23
2018-05-09T06:37:25.193Z,9.67
2018-05-09T06:42:19.996Z,5.53
2018-05-09T06:47:14.635Z,6.27
2018-05-09T06:52:09.245Z,6.57
2018-05-09T06:57:04.013Z,8.53
2018-05-09T07:01:58.653Z,10.87
2018-05-09T07:06:53.406Z,7.10
2018-05-09T07:11:48.341Z,6.80
2018-05-09T07:16:43.727Z,9.27
2018-05-09T07:21:38.373Z,7.90
2018-05-09T07:26:33.533Z,7.77
2018-05-09T07:31:28.145Z,5.50
2018-05-09T07:36:22.775Z,6.57
2018-05-09T07:41:17.415Z,14.20
2018-05-09T07:46:12.813Z,6.77
2018-05-09T07:51:07.728Z,5.07
2018-05-09T07:56:02.366Z,6.73
2018-05-09T08:00:57.739Z,9.77
2018-05-09T08:05:52.435Z,9.60
2018-05-09T08:10:47.082Z,5.50
2018-05-09T08:15:42.506Z,5.90
2018-05-09T08:20:37.176Z,6.57
2018-05-09T08:25:32.077Z,8.80
2018-05-09T08:30:26.688Z,7.60
2018-05-09T08:35:21.450Z,5.00
2018-05-09T08:40:16.400Z,11.53
2018-05-09T08:45:11.774Z,7.77
2018-05-09T08:50:06.611Z,10.73
2018-05-09T08:55:02.169Z,6.83
2018-05-09T08:59:57.573Z,6.63
2018-05-09T09:04:52.187Z,9.97
2018-05-09T09:09:46.815Z,6.67
2018-05-09T09:14:42.295Z,9.57
2018-05-09T09:19:36.692Z,7.53
2018-05-09T09:24:31.357Z,7.23
2018-05-09T09:29:26.829Z,7.27
2018-05-09T09:34:21.444Z,6.93
2018-05-09T09:39:16.071Z,9.07
2018-05-09T09:44:11.327Z,9.73
2018-05-09T09:49:06.719Z,4.67
2018-05-09T09:54:01.666Z,8.97
2018-05-09T09:58:57.120Z,7.20
2018-05-09T10:03:51.982Z,9.77
2018-05-09T10:08:46.616Z,11.70
2018-05-09T10:13:42.033Z,14.00
2018-05-09T10:18:37.557Z,8.83
2018-05-09T10:23:32.958Z,6.90
2018-05-09T10:28:27.594Z,10.40
2018-05-09T10:33:22.131Z,8.10
2018-05-09T10:38:16.492Z,7.70
2018-05-09T10:43:10.941Z,10.53
2018-05-09T10:48:05.443Z,8.93
2018-05-09T10:52:59.833Z,5.37
2018-05-09T10:57:54.280Z,7.57
2018-05-09T11:02:50.202Z,4.67
2018-05-09T11:07:44.666Z,6.77
2018-05-09T11:12:39.119Z,8.67
2018-05-09T11:17:33.540Z,6.43
2018-05-09T11:22:28.203Z,7.10
2018-05-09T11:27:22.699Z,5.40
2018-05-09T11:32:17.115Z,6.63
2018-05-09T11:37:11.655Z,6.23
2018-05-09T11:42:06.988Z,6.10
2018-05-09T11:47:02.106Z,4.17
2018-05-09T11:51:57.246Z,5.63
2018-05-09T11:56:52.375Z,4.87
2018-05-09T12:01:47.249Z,5.33
2018-05-09T12:06:41.666Z,4.10
2018-05-09T12:11:36.967Z,8.43
2018-05-09T12:16:31.499Z,5.70
2018-05-09T12:21:26.087Z,7.43
2018-05-09T12:26:21.215Z,7.57
2018-05-09T12:31:15.568Z,5.93
2018-05-09T12:36:09.986Z,4.40
2018-05-09T12:41:04.490Z,5.40
2018-05-09T12:45:58.840Z,5.50
2018-05-09T12:50:54.291Z,3.90
2018-05-09T12:55:48.650Z,6.17
2018-05-09T13:00:43.095Z,5.83
2018-05-09T13:05:37.704Z,5.87
2018-05-09T13:10:32.285Z,4.90
2018-05-09T13:15:27.056Z,6.40
2018-05-09T13:20:21.386Z,4.13
2018-05-09T13:25:15.736Z,3.93
2018-05-09T13:30:10.374Z,6.63
2018-05-09T13:35:04.433Z,5.50
2018-05-09T13:39:58.790Z,9.07
2018-05-09T13:44:53.327Z,6.60
2018-05-09T13:49:48.663Z,3.77
2018-05-09T13:54:43.764Z,6.10
2018-05-09T13:59:39.029Z,5.37
2018-05-09T14:04:33.566Z,5.70
2018-05-09T14:09:28.273Z,4.37
2018-05-09T14:14:22.896Z,4.07
2018-05-09T14:19:17.634Z,3.90
2018-05-09T14:24:12.932Z,6.00
2018-05-09T14:29:07.515Z,8.50
2018-05-09T14:34:01.856Z,5.07
2018-05-09T14:38:56.968Z,5.80
2018-05-09T14:43:52.083Z,5.37
2018-05-09T14:48:46.441Z,8.50
2018-05-09T14:53:40.795Z,6.00
2018-05-09T14:58:35.944Z,5.83
2018-05-09T15:03:30.296Z,7.10
2018-05-09T15:08:24.676Z,3.87
2018-05-09T15:13:19.051Z,4.63
2018-05-09T15:18:13.403Z,7.37
2018-05-09T15:23:07.756Z,10.63
2018-05-09T15:28:02.110Z,4.90
2018-05-09T15:32:56.515Z,4.47
2018-05-09T15:37:51.772Z,4.93
2018-05-09T15:42:46.893Z,6.13
2018-05-09T15:47:42.074Z,6.43
2018-05-09T15:52:36.575Z,6.57
2018-05-09T15:57:30.929Z,13.07
2018-05-09T16:02:26.235Z,7.50
2018-05-09T16:07:21.352Z,4.83
2018-05-09T16:12:16.661Z,5.17
2018-05-09T16:17:11.034Z,6.30
2018-05-09T16:22:05.926Z,5.07
2018-05-09T16:27:00.377Z,5.63
2018-05-09T16:31:54.732Z,7.10
2018-05-09T16:36:49.112Z,5.83
2018-05-09T16:41:44.364Z,8.00
2018-05-09T16:46:38.794Z,11.03
2018-05-09T16:51:33.309Z,5.47
2018-05-09T16:56:27.859Z,6.90
2018-05-09T17:01:23.033Z,8.97
2018-05-09T17:06:17.523Z,6.50
2018-05-09T17:11:12.440Z,7.13
2018-05-09T17:16:06.984Z,6.33
2018-05-09T17:21:01.349Z,6.70
2018-05-09T17:25:55.962Z,7.10
2018-05-09T17:30:50.325Z,11.40
2018-05-09T17:35:45.442Z,6.27
2018-05-09T17:40:40.646Z,9.10
2018-05-09T17:45:35.041Z,7.77
2018-05-09T17:50:29.551Z,8.80
2018-05-09T17:55:24.706Z,6.10
2018-05-09T18:00:21.298Z,8.93
2018-05-09T18:05:15.965Z,9.50
2018-05-09T18:10:12.263Z,9.73
2018-05-09T18:15:06.786Z,8.70
2018-05-09T18:20:02.361Z,8.53
2018-05-09T18:24:56.727Z,6.67
2018-05-09T18:29:51.256Z,8.77
2018-05-09T18:34:46.039Z,8.73
2018-05-09T18:39:40.389Z,8.17
2018-05-09T18:44:35.131Z,8.40
2018-05-09T18:49:29.763Z,11.17
2018-05-09T18:54:24.306Z,15.37
2018-05-09T18:59:19.826Z,8.50
2018-05-09T19:04:14.729Z,9.63
2018-05-09T19:09:09.341Z,11.73
2018-05-09T19:14:03.814Z,12.50
2018-05-09T19:18:58.333Z,11.10
2018-05-09T19:23:53.183Z,14.77
2018-05-09T19:28:47.690Z,13.97
2018-05-09T19:33:42.395Z,11.20
2018-05-09T19:38:38.623Z,13.67
2018-05-09T19:43:33.219Z,13.73
2018-05-09T19:48:27.450Z,10.00
2018-05-09T19:53:24.076Z,13.53
2018-05-09T19:58:18.402Z,14.70
2018-05-09T20:03:12.547Z,13.43
2018-05-09T20:08:07.050Z,11.03
2018-05-09T20:13:01.414Z,15.03
2018-05-09T20:17:55.850Z,12.23
2018-05-09T20:22:50.378Z,11.53
2018-05-09T20:27:44.830Z,9.73
2018-05-09T20:32:40.832Z,17.10
2018-05-09T20:37:35.452Z,15.60
2018-05-09T20:42:30.200Z,12.47
2018-05-09T20:47:25.348Z,12.03
2018-05-09T20:52:19.739Z,13.83
2018-05-09T20:57:14.895Z,10.37
2018-05-09T21:02:09.371Z,8.90
2018-05-09T21:07:04.504Z,15.97
2018-05-09T21:12:09.968Z,21.70
2018-05-09T21:17:04.423Z,23.57
2018-05-09T21:21:59.113Z,26.77
2018-05-09T21:26:53.516Z,26.63
2018-05-09T21:31:48.316Z,31.57
2018-05-09T21:36:42.681Z,31.27
2018-05-09T21:41:37.810Z,32.93
2018-05-09T21:46:32.498Z,33.33
2018-05-09T21:51:27.767Z,29.00
2018-05-09T21:56:22.120Z,30.87
2018-05-09T22:01:16.413Z,27.17
2018-05-09T22:06:11.273Z,27.63
2018-05-09T22:11:05.834Z,30.70
2018-05-09T22:16:00.847Z,30.53
2018-05-09T22:20:55.195Z,33.47
2018-05-09T22:25:49.568Z,27.53
2018-05-09T22:30:43.931Z,26.70
2018-05-09T22:35:38.276Z,26.70
2018-05-09T22:40:32.467Z,27.13
2018-05-09T22:45:27.681Z,23.90
2018-05-09T22:50:22.804Z,31.67
2018-05-09T22:55:17.165Z,28.20
2018-05-09T23:00:11.438Z,30.47
2018-05-09T23:05:05.929Z,20.10
2018-05-09T23:10:00.354Z,22.00
2018-05-09T23:14:54.708Z,26.13
2018-05-09T23:19:50.869Z,23.90
2018-05-09T23:24:45.006Z,23.27
2018-05-09T23:29:39.524Z,26.80
2018-05-09T23:34:34.057Z,28.50
2018-05-09T23:39:28.606Z,31.17
2018-05-09T23:44:23.103Z,29.20
2018-05-09T23:49:18.270Z,24.83
2018-05-09T23:54:12.648Z,29.67
2018-05-09T23:59:07.042Z,23.77
